Pagrindinis puslapis
METAR-TAF:

METAR-TAF

Oro uostai :

Torsby, Švedija

platuma: 60-09-17N, ilguma: 12-59-40E, Aukštis: 120 m

Dabartinis oras

Ataskaita buvo paskelbta 1 valandą ir 25 minutes, ne 12:50 UTC
Vėjas 3 kt nuo kintamojo kryptimis
Temperatūra 27°C
Drėgmė 26%
Slėgis 1026 hPa
Matomumas 10 km arba daugiau

METAR: ESST 011250Z AUTO VRB03KT 9999 NCD 27/06 Q1026

Laikas: 16:15 (14:15 UTC)


TAF: trūkstamas

Orai ataskaitas ir orų prognozės (METAR, TAF).

turimą stotys yra geltonos ir raudonos taškus žemėlapyje.

Perkelti pele per norėdami pamatyti stoties vardą.

Tada spustelėkite, norėdami matyti oro stebėjimo ir prognozės.

Norėdami pakeisti žemėlapį: spustelėkite ant žalios mygtukų su juodo kryžiaus žemyn,; žalią mygtuką su brūkšneliu, jei norite nutolinti; arba žalių rodyklių gretimoms žemėlapius.


METAR-TAF: